Daphne, AL (36526)

12:22 PM CDT on July 28, 2016 (GMT -0500)
Daphne Utilities Central Services | | Change Station

Elev 157 ft 30.61 °N, 87.88 °W | Updated 2 seconds ago

Mostly Cloudy
Mostly Cloudy
89.1 °F
Feels Like 89 °F
N
8.3
Wind Variable Wind from SW
Gusts 9.8 mph

Today
High -- | Low -- °F
--% Chance of Precip.
Yesterday
High -- | Low -- °F
Precip. -- in
Pressure 30.08 in
Visibility 10.0 miles
Clouds Mostly Cloudy 3400 ft
Heat Index 89 °F
Dew Point 61 °F
Humidity 39%
Rainfall 0.00 in
Snow Depth Not available.
6:07 AM 7:48 PM
Waning Crescent, 30% visible
METAR KBFM 281653Z 16009KT 10SM BKN034 32/26 A3007 RMK AO2 SLP184 T03220261
Pressure 30.08 in
Visibility 10.0 miles
Clouds Mostly Cloudy 3400 ft
Heat Index 89 °F
Dew Point 61 °F
Humidity 39%
Rainfall 0.00 in
Snow Depth Not available.
6:07 AM 7:48 PM
Waning Crescent, 30% visible
METAR KBFM 281653Z 16009KT 10SM BKN034 32/26 A3007 RMK AO2 SLP184 T03220261

10-Day Weather Forecast

Almanac

Astronomy

Jul. 28, 2016 Rise Set
Actual Time
Civil Twilight
Nautical Twilight
Astronomical Twilight
Moon
Length of Visible Light
Length of Day
Tomorrow will be .
, % of the Moon is Illuminated

Today's Extremes

State Highs State Lows

Community

WunderPhotos

Upload Photos

1,928,163 photos uploaded!

WunderBlog® & News

Nearby

Air Quality

  Air Quality AQ Index Pollutant
Not available.

Snow Depth

Station Depth Elevation

Earthquake Activity

City Distance Mag. Time & Date
Minimum magnitude displayed is 2.5.

Coastal Water Temperatures

Place Temperature

Stations

Nearby Weather Stations

Station Location Temp. Windchill Dew Point Humidity Wind Precip. Elev Updated Type
                   

Watches & Warnings

There are currently no watches in effect.